sensor_id;sensor_type;location;lat;lon;timestamp;temperature;humidity
65034;DHT22;51601;51.356;12.458;2023-03-24T00:02:11;12.00;90.90
65034;DHT22;51601;51.356;12.458;2023-03-24T00:06:36;12.10;90.90
65034;DHT22;51601;51.356;12.458;2023-03-24T00:11:01;12.10;90.90
65034;DHT22;51601;51.356;12.458;2023-03-24T00:15:26;12.10;90.80
65034;DHT22;51601;51.356;12.458;2023-03-24T00:19:52;12.10;90.60
65034;DHT22;51601;51.356;12.458;2023-03-24T00:24:17;12.10;90.50
65034;DHT22;51601;51.356;12.458;2023-03-24T00:28:44;12.10;90.50
65034;DHT22;51601;51.356;12.458;2023-03-24T00:33:08;12.10;90.60
65034;DHT22;51601;51.356;12.458;2023-03-24T00:37:34;12.10;90.80
65034;DHT22;51601;51.356;12.458;2023-03-24T00:42:00;12.00;91.10
65034;DHT22;51601;51.356;12.458;2023-03-24T00:46:26;12.00;91.40
65034;DHT22;51601;51.356;12.458;2023-03-24T00:50:52;11.90;91.80
65034;DHT22;51601;51.356;12.458;2023-03-24T00:55:18;11.80;92.30
65034;DHT22;51601;51.356;12.458;2023-03-24T00:59:43;11.80;92.80
65034;DHT22;51601;51.356;12.458;2023-03-24T01:04:10;11.70;93.30
65034;DHT22;51601;51.356;12.458;2023-03-24T01:08:34;11.70;93.70
65034;DHT22;51601;51.356;12.458;2023-03-24T01:13:00;11.70;94.00
65034;DHT22;51601;51.356;12.458;2023-03-24T01:17:24;11.70;94.20
65034;DHT22;51601;51.356;12.458;2023-03-24T01:21:49;11.70;94.50
65034;DHT22;51601;51.356;12.458;2023-03-24T01:26:13;11.70;94.60
65034;DHT22;51601;51.356;12.458;2023-03-24T01:30:38;11.70;94.80
65034;DHT22;51601;51.356;12.458;2023-03-24T01:35:03;11.70;95.30
65034;DHT22;51601;51.356;12.458;2023-03-24T01:39:28;11.70;96.00
65034;DHT22;51601;51.356;12.458;2023-03-24T01:43:52;11.70;96.90
65034;DHT22;51601;51.356;12.458;2023-03-24T01:48:20;11.70;98.20
65034;DHT22;51601;51.356;12.458;2023-03-24T01:52:45;11.70;99.10
65034;DHT22;51601;51.356;12.458;2023-03-24T01:57:13;11.70;99.60
65034;DHT22;51601;51.356;12.458;2023-03-24T02:01:39;11.80;99.70
65034;DHT22;51601;51.356;12.458;2023-03-24T02:06:32;11.80;99.40
65034;DHT22;51601;51.356;12.458;2023-03-24T02:10:57;11.80;99.00
65034;DHT22;51601;51.356;12.458;2023-03-24T02:15:31;11.90;98.70
65034;DHT22;51601;51.356;12.458;2023-03-24T02:20:33;12.00;98.30
65034;DHT22;51601;51.356;12.458;2023-03-24T02:25:33;12.00;97.90
65034;DHT22;51601;51.356;12.458;2023-03-24T02:30:22;12.00;97.70
65034;DHT22;51601;51.356;12.458;2023-03-24T02:35:16;12.10;97.90
65034;DHT22;51601;51.356;12.458;2023-03-24T02:44:41;12.00;99.40
65034;DHT22;51601;51.356;12.458;2023-03-24T02:49:20;12.00;99.90
65034;DHT22;51601;51.356;12.458;2023-03-24T02:53:53;11.80;99.90
65034;DHT22;51601;51.356;12.458;2023-03-24T02:58:27;11.60;99.90
65034;DHT22;51601;51.356;12.458;2023-03-24T03:02:59;11.50;99.90
65034;DHT22;51601;51.356;12.458;2023-03-24T03:07:26;11.40;99.90
65034;DHT22;51601;51.356;12.458;2023-03-24T03:11:56;11.30;99.90
65034;DHT22;51601;51.356;12.458;2023-03-24T03:16:27;11.20;99.90
65034;DHT22;51601;51.356;12.458;2023-03-24T03:21:00;11.10;99.90
65034;DHT22;51601;51.356;12.458;2023-03-24T03:25:31;11.10;99.90
65034;DHT22;51601;51.356;12.458;2023-03-24T03:30:02;11.10;99.90
65034;DHT22;51601;51.356;12.458;2023-03-24T03:34:35;11.10;99.90
65034;DHT22;51601;51.356;12.458;2023-03-24T03:39:07;11.10;99.90
65034;DHT22;51601;51.356;12.458;2023-03-24T03:43:32;11.20;99.90
65034;DHT22;51601;51.356;12.458;2023-03-24T03:47:58;11.20;99.90
65034;DHT22;51601;51.356;12.458;2023-03-24T03:52:23;11.20;99.90
65034;DHT22;51601;51.356;12.458;2023-03-24T03:56:48;11.30;99.90
65034;DHT22;51601;51.356;12.458;2023-03-24T04:01:25;11.30;99.90
65034;DHT22;51601;51.356;12.458;2023-03-24T04:06:32;11.30;99.90
65034;DHT22;51601;51.356;12.458;2023-03-24T04:11:27;11.40;99.90
65034;DHT22;51601;51.356;12.458;2023-03-24T04:16:08;11.50;99.90
65034;DHT22;51601;51.356;12.458;2023-03-24T04:21:24;11.50;99.90
65034;DHT22;51601;51.356;12.458;2023-03-24T04:26:05;11.60;99.90
65034;DHT22;51601;51.356;12.458;2023-03-24T04:30:40;11.50;99.90
65034;DHT22;51601;51.356;12.458;2023-03-24T04:35:13;11.60;99.90
65034;DHT22;51601;51.356;12.458;2023-03-24T04:40:04;11.60;99.90
65034;DHT22;51601;51.356;12.458;2023-03-24T04:44:30;11.60;99.90
65034;DHT22;51601;51.356;12.458;2023-03-24T04:49:15;11.70;99.90
65034;DHT22;51601;51.356;12.458;2023-03-24T04:53:42;11.70;99.90
65034;DHT22;51601;51.356;12.458;2023-03-24T04:58:06;11.70;99.90
65034;DHT22;51601;51.356;12.458;2023-03-24T05:02:30;11.70;99.90
65034;DHT22;51601;51.356;12.458;2023-03-24T05:07:16;11.70;99.90
65034;DHT22;51601;51.356;12.458;2023-03-24T05:11:43;11.70;99.90
65034;DHT22;51601;51.356;12.458;2023-03-24T05:16:08;11.80;99.90
65034;DHT22;51601;51.356;12.458;2023-03-24T05:20:35;11.80;99.90
65034;DHT22;51601;51.356;12.458;2023-03-24T05:25:10;11.80;99.90
65034;DHT22;51601;51.356;12.458;2023-03-24T05:29:34;11.80;99.90
65034;DHT22;51601;51.356;12.458;2023-03-24T05:33:59;11.80;99.90
65034;DHT22;51601;51.356;12.458;2023-03-24T05:38:24;11.80;99.90
65034;DHT22;51601;51.356;12.458;2023-03-24T05:42:51;11.80;99.90
65034;DHT22;51601;51.356;12.458;2023-03-24T05:47:19;11.80;99.90
65034;DHT22;51601;51.356;12.458;2023-03-24T05:51:43;11.80;99.90
65034;DHT22;51601;51.356;12.458;2023-03-24T05:56:08;11.90;99.90
65034;DHT22;51601;51.356;12.458;2023-03-24T06:00:55;11.90;99.90
65034;DHT22;51601;51.356;12.458;2023-03-24T06:05:28;12.00;99.90
65034;DHT22;51601;51.356;12.458;2023-03-24T06:09:52;12.00;99.90
65034;DHT22;51601;51.356;12.458;2023-03-24T06:14:20;12.10;99.90
65034;DHT22;51601;51.356;12.458;2023-03-24T06:18:56;12.10;99.90
65034;DHT22;51601;51.356;12.458;2023-03-24T06:23:39;12.40;99.90
65034;DHT22;51601;51.356;12.458;2023-03-24T06:28:05;12.50;99.90
65034;DHT22;51601;51.356;12.458;2023-03-24T06:32:34;12.60;99.90
65034;DHT22;51601;51.356;12.458;2023-03-24T06:37:01;12.70;99.90
65034;DHT22;51601;51.356;12.458;2023-03-24T06:41:25;12.90;99.90
65034;DHT22;51601;51.356;12.458;2023-03-24T06:45:53;12.90;99.90
65034;DHT22;51601;51.356;12.458;2023-03-24T06:50:18;13.00;99.90
65034;DHT22;51601;51.356;12.458;2023-03-24T06:54:43;13.10;99.90
65034;DHT22;51601;51.356;12.458;2023-03-24T06:59:07;13.20;99.90
65034;DHT22;51601;51.356;12.458;2023-03-24T07:03:32;13.20;99.90
65034;DHT22;51601;51.356;12.458;2023-03-24T07:08:26;13.30;99.90
65034;DHT22;51601;51.356;12.458;2023-03-24T07:13:02;13.40;99.90
65034;DHT22;51601;51.356;12.458;2023-03-24T07:17:28;13.50;99.90
65034;DHT22;51601;51.356;12.458;2023-03-24T07:22:25;13.50;99.90
65034;DHT22;51601;51.356;12.458;2023-03-24T07:27:27;13.70;99.90
65034;DHT22;51601;51.356;12.458;2023-03-24T07:31:53;13.70;99.90
65034;DHT22;51601;51.356;12.458;2023-03-24T07:36:21;13.80;99.90
65034;DHT22;51601;51.356;12.458;2023-03-24T07:40:45;13.90;99.90
65034;DHT22;51601;51.356;12.458;2023-03-24T07:45:11;14.10;99.90
65034;DHT22;51601;51.356;12.458;2023-03-24T07:49:36;14.30;99.90
65034;DHT22;51601;51.356;12.458;2023-03-24T07:54:04;14.50;99.90
65034;DHT22;51601;51.356;12.458;2023-03-24T07:58:32;14.60;99.90
65034;DHT22;51601;51.356;12.458;2023-03-24T08:03:05;14.70;99.60
65034;DHT22;51601;51.356;12.458;2023-03-24T08:07:36;14.70;99.30
65034;DHT22;51601;51.356;12.458;2023-03-24T08:12:02;14.70;99.50
65034;DHT22;51601;51.356;12.458;2023-03-24T08:16:41;14.70;97.90
65034;DHT22;51601;51.356;12.458;2023-03-24T08:21:07;14.80;97.80
65034;DHT22;51601;51.356;12.458;2023-03-24T08:25:33;14.80;97.70
65034;DHT22;51601;51.356;12.458;2023-03-24T08:29:57;14.80;98.20
65034;DHT22;51601;51.356;12.458;2023-03-24T08:34:21;14.90;97.80
65034;DHT22;51601;51.356;12.458;2023-03-24T08:38:46;15.00;97.00
65034;DHT22;51601;51.356;12.458;2023-03-24T08:43:15;15.10;97.50
65034;DHT22;51601;51.356;12.458;2023-03-24T08:47:39;15.20;97.70
65034;DHT22;51601;51.356;12.458;2023-03-24T08:52:03;15.40;97.90
65034;DHT22;51601;51.356;12.458;2023-03-24T08:56:28;15.50;95.40
65034;DHT22;51601;51.356;12.458;2023-03-24T09:00:53;15.70;96.00
65034;DHT22;51601;51.356;12.458;2023-03-24T09:05:18;16.10;96.40
65034;DHT22;51601;51.356;12.458;2023-03-24T09:09:58;16.60;95.80
65034;DHT22;51601;51.356;12.458;2023-03-24T09:14:22;17.00;94.40
65034;DHT22;51601;51.356;12.458;2023-03-24T09:18:48;17.20;86.40
65034;DHT22;51601;51.356;12.458;2023-03-24T09:23:12;17.50;90.40
65034;DHT22;51601;51.356;12.458;2023-03-24T09:27:36;17.80;88.60
65034;DHT22;51601;51.356;12.458;2023-03-24T09:32:01;18.10;90.50
65034;DHT22;51601;51.356;12.458;2023-03-24T09:36:28;18.20;87.20
65034;DHT22;51601;51.356;12.458;2023-03-24T09:40:58;18.40;85.10
65034;DHT22;51601;51.356;12.458;2023-03-24T09:45:26;18.70;84.90
65034;DHT22;51601;51.356;12.458;2023-03-24T09:49:51;19.10;84.40
65034;DHT22;51601;51.356;12.458;2023-03-24T09:54:22;19.70;83.40
65034;DHT22;51601;51.356;12.458;2023-03-24T09:58:53;20.20;82.40
65034;DHT22;51601;51.356;12.458;2023-03-24T10:03:22;20.60;76.70
65034;DHT22;51601;51.356;12.458;2023-03-24T10:07:51;20.70;76.20
65034;DHT22;51601;51.356;12.458;2023-03-24T10:12:28;20.50;76.20
65034;DHT22;51601;51.356;12.458;2023-03-24T10:17:00;20.10;72.90
65034;DHT22;51601;51.356;12.458;2023-03-24T10:21:27;19.50;73.10
65034;DHT22;51601;51.356;12.458;2023-03-24T10:26:00;19.00;72.70
65034;DHT22;51601;51.356;12.458;2023-03-24T10:30:30;18.60;73.80
65034;DHT22;51601;51.356;12.458;2023-03-24T10:34:58;18.10;75.20
65034;DHT22;51601;51.356;12.458;2023-03-24T10:39:29;17.90;77.40
65034;DHT22;51601;51.356;12.458;2023-03-24T10:43:57;17.90;79.20
65034;DHT22;51601;51.356;12.458;2023-03-24T10:48:42;18.20;79.40
65034;DHT22;51601;51.356;12.458;2023-03-24T10:53:16;18.60;78.70
65034;DHT22;51601;51.356;12.458;2023-03-24T10:57:42;19.00;80.80
65034;DHT22;51601;51.356;12.458;2023-03-24T11:02:16;19.40;80.50
65034;DHT22;51601;51.356;12.458;2023-03-24T11:06:55;19.50;77.80
65034;DHT22;51601;51.356;12.458;2023-03-24T11:11:28;19.40;74.60
65034;DHT22;51601;51.356;12.458;2023-03-24T11:16:05;19.20;72.30
65034;DHT22;51601;51.356;12.458;2023-03-24T11:20:31;18.50;66.40
65034;DHT22;51601;51.356;12.458;2023-03-24T11:24:57;17.90;67.20
65034;DHT22;51601;51.356;12.458;2023-03-24T11:29:23;17.30;68.40
65034;DHT22;51601;51.356;12.458;2023-03-24T11:33:50;16.80;69.40
65034;DHT22;51601;51.356;12.458;2023-03-24T11:38:26;16.40;70.10
65034;DHT22;51601;51.356;12.458;2023-03-24T11:42:54;16.00;71.20
65034;DHT22;51601;51.356;12.458;2023-03-24T11:47:23;15.70;72.40
65034;DHT22;51601;51.356;12.458;2023-03-24T11:51:52;15.30;74.30
65034;DHT22;51601;51.356;12.458;2023-03-24T11:56:24;15.10;77.20
65034;DHT22;51601;51.356;12.458;2023-03-24T12:00:54;15.10;80.30
65034;DHT22;51601;51.356;12.458;2023-03-24T12:05:26;15.10;79.50
65034;DHT22;51601;51.356;12.458;2023-03-24T12:09:56;15.10;79.60
65034;DHT22;51601;51.356;12.458;2023-03-24T12:14:28;15.00;80.70
65034;DHT22;51601;51.356;12.458;2023-03-24T12:23:56;14.80;84.10
65034;DHT22;51601;51.356;12.458;2023-03-24T12:28:38;14.80;89.60
65034;DHT22;51601;51.356;12.458;2023-03-24T12:33:27;14.90;90.80
65034;DHT22;51601;51.356;12.458;2023-03-24T12:38:07;14.90;88.90
65034;DHT22;51601;51.356;12.458;2023-03-24T12:42:38;14.90;90.20
65034;DHT22;51601;51.356;12.458;2023-03-24T12:47:10;14.80;90.90
65034;DHT22;51601;51.356;12.458;2023-03-24T12:51:42;14.80;90.80
65034;DHT22;51601;51.356;12.458;2023-03-24T12:56:13;14.70;88.70
65034;DHT22;51601;51.356;12.458;2023-03-24T13:00:43;14.50;87.70
65034;DHT22;51601;51.356;12.458;2023-03-24T13:05:15;14.40;86.90
65034;DHT22;51601;51.356;12.458;2023-03-24T13:09:45;14.20;87.40
65034;DHT22;51601;51.356;12.458;2023-03-24T13:14:21;14.10;87.40
65034;DHT22;51601;51.356;12.458;2023-03-24T13:18:50;14.00;86.70
65034;DHT22;51601;51.356;12.458;2023-03-24T13:23:30;13.90;85.60
65034;DHT22;51601;51.356;12.458;2023-03-24T13:27:57;14.00;82.70
65034;DHT22;51601;51.356;12.458;2023-03-24T13:32:29;14.00;84.20
65034;DHT22;51601;51.356;12.458;2023-03-24T13:36:58;14.10;84.50
65034;DHT22;51601;51.356;12.458;2023-03-24T13:41:24;14.10;84.00
65034;DHT22;51601;51.356;12.458;2023-03-24T13:45:50;14.00;81.00
65034;DHT22;51601;51.356;12.458;2023-03-24T13:50:17;13.90;80.30
65034;DHT22;51601;51.356;12.458;2023-03-24T13:54:43;13.80;80.70
65034;DHT22;51601;51.356;12.458;2023-03-24T13:59:38;13.80;83.10
65034;DHT22;51601;51.356;12.458;2023-03-24T14:04:23;13.80;83.80
65034;DHT22;51601;51.356;12.458;2023-03-24T14:09:04;13.80;84.90
65034;DHT22;51601;51.356;12.458;2023-03-24T14:13:35;13.80;85.10
65034;DHT22;51601;51.356;12.458;2023-03-24T14:18:17;13.80;86.20
65034;DHT22;51601;51.356;12.458;2023-03-24T14:23:20;13.80;85.40
65034;DHT22;51601;51.356;12.458;2023-03-24T14:27:52;13.90;85.50
65034;DHT22;51601;51.356;12.458;2023-03-24T14:32:21;14.00;85.70
65034;DHT22;51601;51.356;12.458;2023-03-24T14:36:57;14.00;83.30
65034;DHT22;51601;51.356;12.458;2023-03-24T14:41:28;14.00;80.10
65034;DHT22;51601;51.356;12.458;2023-03-24T14:45:59;13.80;78.70
65034;DHT22;51601;51.356;12.458;2023-03-24T14:50:26;13.80;76.80
65034;DHT22;51601;51.356;12.458;2023-03-24T14:54:57;13.70;76.20
65034;DHT22;51601;51.356;12.458;2023-03-24T14:59:30;13.60;75.10
65034;DHT22;51601;51.356;12.458;2023-03-24T15:04:03;13.50;73.90
65034;DHT22;51601;51.356;12.458;2023-03-24T15:08:30;13.60;74.30
65034;DHT22;51601;51.356;12.458;2023-03-24T15:12:55;13.80;73.60
65034;DHT22;51601;51.356;12.458;2023-03-24T15:17:24;13.90;72.50
65034;DHT22;51601;51.356;12.458;2023-03-24T15:21:56;13.90;71.30
65034;DHT22;51601;51.356;12.458;2023-03-24T15:26:21;13.90;70.60
65034;DHT22;51601;51.356;12.458;2023-03-24T15:30:45;13.80;71.40
65034;DHT22;51601;51.356;12.458;2023-03-24T15:35:13;13.80;72.20
65034;DHT22;51601;51.356;12.458;2023-03-24T15:39:39;13.90;72.10
65034;DHT22;51601;51.356;12.458;2023-03-24T15:44:07;13.90;71.90
65034;DHT22;51601;51.356;12.458;2023-03-24T15:48:34;14.00;71.50
65034;DHT22;51601;51.356;12.458;2023-03-24T15:53:01;14.00;71.00
65034;DHT22;51601;51.356;12.458;2023-03-24T15:57:27;14.00;71.10
65034;DHT22;51601;51.356;12.458;2023-03-24T16:01:51;14.10;70.60
65034;DHT22;51601;51.356;12.458;2023-03-24T16:06:26;14.10;70.50
65034;DHT22;51601;51.356;12.458;2023-03-24T16:10:56;14.10;70.00
65034;DHT22;51601;51.356;12.458;2023-03-24T16:15:22;14.10;68.80
65034;DHT22;51601;51.356;12.458;2023-03-24T16:19:47;14.00;68.00
65034;DHT22;51601;51.356;12.458;2023-03-24T16:24:10;13.90;68.00
65034;DHT22;51601;51.356;12.458;2023-03-24T16:28:34;13.80;67.70
65034;DHT22;51601;51.356;12.458;2023-03-24T16:33:00;13.80;68.20
65034;DHT22;51601;51.356;12.458;2023-03-24T16:37:24;13.80;68.60
65034;DHT22;51601;51.356;12.458;2023-03-24T16:41:48;13.70;68.70
65034;DHT22;51601;51.356;12.458;2023-03-24T16:46:13;13.80;68.60
65034;DHT22;51601;51.356;12.458;2023-03-24T16:50:41;13.60;68.70
65034;DHT22;51601;51.356;12.458;2023-03-24T16:55:06;13.60;69.10
65034;DHT22;51601;51.356;12.458;2023-03-24T16:59:30;13.40;69.20
65034;DHT22;51601;51.356;12.458;2023-03-24T17:03:55;13.30;69.60
65034;DHT22;51601;51.356;12.458;2023-03-24T17:08:21;13.20;69.90
65034;DHT22;51601;51.356;12.458;2023-03-24T17:12:45;13.10;70.20
65034;DHT22;51601;51.356;12.458;2023-03-24T17:17:10;13.00;70.70
65034;DHT22;51601;51.356;12.458;2023-03-24T17:21:37;12.90;71.10
65034;DHT22;51601;51.356;12.458;2023-03-24T17:26:03;12.80;71.50
65034;DHT22;51601;51.356;12.458;2023-03-24T17:30:28;12.70;71.80
65034;DHT22;51601;51.356;12.458;2023-03-24T17:34:54;12.70;72.30
65034;DHT22;51601;51.356;12.458;2023-03-24T17:39:19;12.60;72.60
65034;DHT22;51601;51.356;12.458;2023-03-24T17:43:46;12.50;72.70
65034;DHT22;51601;51.356;12.458;2023-03-24T17:48:10;12.50;72.80
65034;DHT22;51601;51.356;12.458;2023-03-24T17:52:36;12.50;72.90
65034;DHT22;51601;51.356;12.458;2023-03-24T17:57:00;12.40;73.00
65034;DHT22;51601;51.356;12.458;2023-03-24T18:01:26;12.30;73.00
65034;DHT22;51601;51.356;12.458;2023-03-24T18:05:51;12.30;73.00
65034;DHT22;51601;51.356;12.458;2023-03-24T18:10:16;12.20;73.00
65034;DHT22;51601;51.356;12.458;2023-03-24T18:14:40;12.20;73.10
65034;DHT22;51601;51.356;12.458;2023-03-24T18:19:05;12.10;73.20
65034;DHT22;51601;51.356;12.458;2023-03-24T18:23:29;12.00;73.30
65034;DHT22;51601;51.356;12.458;2023-03-24T18:27:53;11.90;73.60
65034;DHT22;51601;51.356;12.458;2023-03-24T18:32:18;11.80;73.80
65034;DHT22;51601;51.356;12.458;2023-03-24T18:36:44;11.70;74.20
65034;DHT22;51601;51.356;12.458;2023-03-24T18:41:09;11.60;74.70
65034;DHT22;51601;51.356;12.458;2023-03-24T18:45:34;11.50;75.30
65034;DHT22;51601;51.356;12.458;2023-03-24T18:49:58;11.40;75.90
65034;DHT22;51601;51.356;12.458;2023-03-24T18:54:25;11.30;76.50
65034;DHT22;51601;51.356;12.458;2023-03-24T18:58:49;11.20;77.00
65034;DHT22;51601;51.356;12.458;2023-03-24T19:03:14;11.20;77.70
65034;DHT22;51601;51.356;12.458;2023-03-24T19:07:39;11.10;78.30
65034;DHT22;51601;51.356;12.458;2023-03-24T19:12:05;11.10;79.30
65034;DHT22;51601;51.356;12.458;2023-03-24T19:16:29;11.00;80.20
65034;DHT22;51601;51.356;12.458;2023-03-24T19:20:54;10.90;81.30
65034;DHT22;51601;51.356;12.458;2023-03-24T19:25:19;10.90;82.80
65034;DHT22;51601;51.356;12.458;2023-03-24T19:29:44;10.80;84.20
65034;DHT22;51601;51.356;12.458;2023-03-24T19:34:09;10.70;85.50
65034;DHT22;51601;51.356;12.458;2023-03-24T19:38:33;10.70;86.60
65034;DHT22;51601;51.356;12.458;2023-03-24T19:42:57;10.60;87.60
65034;DHT22;51601;51.356;12.458;2023-03-24T19:47:23;10.50;88.40
65034;DHT22;51601;51.356;12.458;2023-03-24T19:51:47;10.50;89.20
65034;DHT22;51601;51.356;12.458;2023-03-24T19:56:12;10.40;89.90
65034;DHT22;51601;51.356;12.458;2023-03-24T20:00:39;10.40;90.20
65034;DHT22;51601;51.356;12.458;2023-03-24T20:05:05;10.30;90.50
65034;DHT22;51601;51.356;12.458;2023-03-24T20:09:29;10.20;91.00
65034;DHT22;51601;51.356;12.458;2023-03-24T20:13:53;10.20;91.30
65034;DHT22;51601;51.356;12.458;2023-03-24T20:18:17;10.20;91.70
65034;DHT22;51601;51.356;12.458;2023-03-24T20:22:43;10.10;92.00
65034;DHT22;51601;51.356;12.458;2023-03-24T20:27:07;10.10;92.40
65034;DHT22;51601;51.356;12.458;2023-03-24T20:31:32;10.10;92.80
65034;DHT22;51601;51.356;12.458;2023-03-24T20:35:58;10.00;93.20
65034;DHT22;51601;51.356;12.458;2023-03-24T20:40:23;10.00;93.70
65034;DHT22;51601;51.356;12.458;2023-03-24T20:44:47;10.00;94.40
65034;DHT22;51601;51.356;12.458;2023-03-24T20:49:11;10.00;94.90
65034;DHT22;51601;51.356;12.458;2023-03-24T20:53:38;10.10;95.20
65034;DHT22;51601;51.356;12.458;2023-03-24T20:58:04;10.10;94.90
65034;DHT22;51601;51.356;12.458;2023-03-24T21:02:29;10.10;94.10
65034;DHT22;51601;51.356;12.458;2023-03-24T21:06:54;10.10;93.70
65034;DHT22;51601;51.356;12.458;2023-03-24T21:11:19;10.10;93.80
65034;DHT22;51601;51.356;12.458;2023-03-24T21:15:45;10.10;93.70
65034;DHT22;51601;51.356;12.458;2023-03-24T21:20:10;10.10;93.40
65034;DHT22;51601;51.356;12.458;2023-03-24T21:24:39;10.00;93.60
65034;DHT22;51601;51.356;12.458;2023-03-24T21:29:03;10.10;94.30
65034;DHT22;51601;51.356;12.458;2023-03-24T21:33:30;10.10;94.90
65034;DHT22;51601;51.356;12.458;2023-03-24T21:37:55;10.20;95.10
65034;DHT22;51601;51.356;12.458;2023-03-24T21:42:19;10.30;95.30
65034;DHT22;51601;51.356;12.458;2023-03-24T21:46:45;10.30;95.00
65034;DHT22;51601;51.356;12.458;2023-03-24T21:51:11;10.30;94.40
65034;DHT22;51601;51.356;12.458;2023-03-24T21:55:36;10.20;94.10
65034;DHT22;51601;51.356;12.458;2023-03-24T22:00:00;10.20;94.50
65034;DHT22;51601;51.356;12.458;2023-03-24T22:04:32;10.10;94.90
65034;DHT22;51601;51.356;12.458;2023-03-24T22:09:01;10.10;95.30
65034;DHT22;51601;51.356;12.458;2023-03-24T22:13:28;10.10;96.10
65034;DHT22;51601;51.356;12.458;2023-03-24T22:17:52;10.00;96.10
65034;DHT22;51601;51.356;12.458;2023-03-24T22:22:16;9.90;96.60
65034;DHT22;51601;51.356;12.458;2023-03-24T22:26:42;9.80;97.00
65034;DHT22;51601;51.356;12.458;2023-03-24T22:31:07;9.60;97.50
65034;DHT22;51601;51.356;12.458;2023-03-24T22:35:31;9.60;98.20
65034;DHT22;51601;51.356;12.458;2023-03-24T22:39:55;9.50;98.80
65034;DHT22;51601;51.356;12.458;2023-03-24T22:44:20;9.50;99.20
65034;DHT22;51601;51.356;12.458;2023-03-24T22:48:44;9.60;99.60
65034;DHT22;51601;51.356;12.458;2023-03-24T22:53:08;9.60;99.70
65034;DHT22;51601;51.356;12.458;2023-03-24T22:57:33;9.60;99.60
65034;DHT22;51601;51.356;12.458;2023-03-24T23:01:58;9.70;99.30
65034;DHT22;51601;51.356;12.458;2023-03-24T23:06:31;9.60;99.00
65034;DHT22;51601;51.356;12.458;2023-03-24T23:10:56;9.50;98.80
65034;DHT22;51601;51.356;12.458;2023-03-24T23:15:14;9.40;99.00
65034;DHT22;51601;51.356;12.458;2023-03-24T23:19:41;9.30;99.40
65034;DHT22;51601;51.356;12.458;2023-03-24T23:24:05;9.20;99.90
65034;DHT22;51601;51.356;12.458;2023-03-24T23:28:30;9.10;99.90
65034;DHT22;51601;51.356;12.458;2023-03-24T23:32:54;9.10;99.90
65034;DHT22;51601;51.356;12.458;2023-03-24T23:37:21;9.10;99.90
65034;DHT22;51601;51.356;12.458;2023-03-24T23:41:44;9.10;99.90
65034;DHT22;51601;51.356;12.458;2023-03-24T23:46:08;9.20;99.90
65034;DHT22;51601;51.356;12.458;2023-03-24T23:50:33;9.20;99.90
65034;DHT22;51601;51.356;12.458;2023-03-24T23:54:59;9.20;99.90
65034;DHT22;51601;51.356;12.458;2023-03-24T23:59:25;9.30;99.90
